createdAt,value
2023-10-06T00:02:30.057Z,15.25
2023-10-06T00:04:59.350Z,15.23
2023-10-06T00:07:27.761Z,15.25
2023-10-06T00:09:56.703Z,15.22
2023-10-06T00:12:27.632Z,15.24
2023-10-06T00:14:59.396Z,15.22
2023-10-06T00:17:29.711Z,15.21
2023-10-06T00:20:01.239Z,15.24
2023-10-06T00:22:30.457Z,15.20
2023-10-06T00:25:01.225Z,15.29
2023-10-06T00:27:32.282Z,15.22
2023-10-06T00:30:13.027Z,15.23
2023-10-06T00:32:43.534Z,15.28
2023-10-06T00:35:13.070Z,15.20
2023-10-06T00:37:42.696Z,15.14
2023-10-06T00:40:21.142Z,15.04
2023-10-06T00:42:54.562Z,15.01
2023-10-06T00:45:25.777Z,15.11
2023-10-06T00:47:55.361Z,15.11
2023-10-06T00:50:25.389Z,15.05
2023-10-06T00:52:57.139Z,14.98
2023-10-06T00:55:28.005Z,14.93
2023-10-06T00:57:56.273Z,14.88
2023-10-06T01:00:26.727Z,14.82
2023-10-06T01:02:54.942Z,14.81
2023-10-06T01:05:26.840Z,14.84
2023-10-06T01:07:55.909Z,14.81
2023-10-06T01:10:29.554Z,14.78
2023-10-06T01:12:58.602Z,14.77
2023-10-06T01:15:31.119Z,14.76
2023-10-06T01:18:00.660Z,14.83
2023-10-06T01:20:35.334Z,14.83
2023-10-06T01:23:11.820Z,14.80
2023-10-06T01:25:41.014Z,14.80
2023-10-06T01:28:13.892Z,14.82
2023-10-06T01:30:42.301Z,14.82
2023-10-06T01:33:09.947Z,14.76
2023-10-06T01:35:43.929Z,14.76
2023-10-06T01:38:23.546Z,14.76
2023-10-06T01:40:56.015Z,14.75
2023-10-06T01:43:31.403Z,14.73
2023-10-06T01:46:00.958Z,14.67
2023-10-06T01:48:31.582Z,14.61
2023-10-06T01:51:00.019Z,14.59
2023-10-06T01:53:34.594Z,14.52
2023-10-06T01:56:08.044Z,14.48
2023-10-06T01:58:38.835Z,14.47
2023-10-06T02:01:08.524Z,14.50
2023-10-06T02:03:41.785Z,14.47
2023-10-06T02:06:17.301Z,14.41
2023-10-06T02:08:50.888Z,14.34
2023-10-06T02:11:22.230Z,14.28
2023-10-06T02:13:50.443Z,14.28
2023-10-06T02:16:24.456Z,14.29
2023-10-06T02:18:55.260Z,14.30
2023-10-06T02:21:26.304Z,14.30
2023-10-06T02:24:00.994Z,14.32
2023-10-06T02:26:29.236Z,14.35
2023-10-06T02:28:57.949Z,14.34
2023-10-06T02:31:27.838Z,14.33
2023-10-06T02:33:56.596Z,14.33
2023-10-06T02:36:24.912Z,14.37
2023-10-06T02:38:55.215Z,14.37
2023-10-06T02:41:27.575Z,14.41
2023-10-06T02:43:56.857Z,14.47
2023-10-06T02:46:27.126Z,14.38
2023-10-06T02:48:55.704Z,14.40
2023-10-06T02:51:33.733Z,14.42
2023-10-06T02:54:22.613Z,14.40
2023-10-06T02:56:52.165Z,14.40
2023-10-06T02:59:25.163Z,14.31
2023-10-06T03:01:57.145Z,14.27
2023-10-06T03:04:27.999Z,14.21
2023-10-06T03:06:58.176Z,14.16
2023-10-06T03:09:38.358Z,14.21
2023-10-06T03:12:13.605Z,14.09
2023-10-06T03:14:41.906Z,14.02
2023-10-06T03:17:12.111Z,14.02
2023-10-06T03:19:42.203Z,14.08
2023-10-06T03:22:13.839Z,14.04
2023-10-06T03:24:54.714Z,14.06
2023-10-06T03:27:24.932Z,14.05
2023-10-06T03:29:56.325Z,14.00
2023-10-06T03:32:34.150Z,13.98
2023-10-06T03:35:13.215Z,13.98
2023-10-06T03:37:53.145Z,14.02
2023-10-06T03:40:26.685Z,14.07
2023-10-06T03:42:55.132Z,14.06
2023-10-06T03:45:30.447Z,14.06
2023-10-06T03:48:09.905Z,14.01
2023-10-06T03:50:44.128Z,13.98
2023-10-06T03:53:16.462Z,13.91
2023-10-06T03:55:47.784Z,13.84
2023-10-06T03:58:17.895Z,13.81
2023-10-06T04:00:50.947Z,13.86
2023-10-06T04:03:21.636Z,13.90
2023-10-06T04:05:51.441Z,13.91
2023-10-06T04:08:22.685Z,13.86
2023-10-06T04:10:56.222Z,13.85
2023-10-06T04:13:24.679Z,13.91
2023-10-06T04:15:53.987Z,13.87
2023-10-06T04:18:25.013Z,13.88
2023-10-06T04:20:54.948Z,13.86
2023-10-06T04:23:25.227Z,13.84
2023-10-06T04:25:58.093Z,13.84
2023-10-06T04:28:29.720Z,13.83
2023-10-06T04:31:02.484Z,13.85
2023-10-06T04:33:31.215Z,13.85
2023-10-06T04:36:02.389Z,13.80
2023-10-06T04:38:30.981Z,13.78
2023-10-06T04:41:01.153Z,13.78
2023-10-06T04:43:29.451Z,13.73
2023-10-06T04:45:57.914Z,13.67
2023-10-06T04:48:26.219Z,13.67
2023-10-06T04:50:57.176Z,13.77
2023-10-06T04:53:25.509Z,13.80
2023-10-06T04:55:53.927Z,13.86
2023-10-06T04:58:24.357Z,13.89
2023-10-06T05:00:55.144Z,13.90
2023-10-06T05:03:26.103Z,13.85
2023-10-06T05:05:57.128Z,13.98
2023-10-06T05:08:26.139Z,14.04
2023-10-06T05:10:57.247Z,14.04
2023-10-06T05:13:28.063Z,13.99
2023-10-06T05:15:56.582Z,14.06
2023-10-06T05:18:25.768Z,14.15
2023-10-06T05:20:54.626Z,14.26
2023-10-06T05:23:23.342Z,14.38
2023-10-06T05:25:51.705Z,14.40
2023-10-06T05:28:22.040Z,14.50
2023-10-06T05:30:52.149Z,14.58
2023-10-06T05:33:20.855Z,14.62
2023-10-06T05:35:49.669Z,14.72
2023-10-06T05:38:18.236Z,14.77
2023-10-06T05:40:48.089Z,14.91
2023-10-06T05:43:18.388Z,15.01
2023-10-06T05:45:53.758Z,15.22
2023-10-06T05:48:23.968Z,15.29
2023-10-06T05:50:53.859Z,15.53
2023-10-06T05:53:24.483Z,15.57
2023-10-06T05:55:53.803Z,15.90
2023-10-06T05:58:24.868Z,16.10
2023-10-06T06:00:54.015Z,16.14
2023-10-06T06:03:25.220Z,16.17
2023-10-06T06:05:54.729Z,16.35
2023-10-06T06:08:23.422Z,16.46
2023-10-06T06:10:51.987Z,16.60
2023-10-06T06:13:22.924Z,16.71
2023-10-06T06:15:51.847Z,16.78
2023-10-06T06:18:20.115Z,16.89
2023-10-06T06:20:49.859Z,17.09
2023-10-06T06:23:18.462Z,17.29
2023-10-06T06:25:47.092Z,17.46
2023-10-06T06:28:17.861Z,17.51
2023-10-06T06:30:48.605Z,17.60
2023-10-06T06:33:20.379Z,17.73
2023-10-06T06:35:50.425Z,17.87
2023-10-06T06:38:20.128Z,18.00
2023-10-06T06:40:49.373Z,18.14
2023-10-06T06:43:21.445Z,18.21
2023-10-06T06:45:50.034Z,18.28
2023-10-06T06:48:21.125Z,18.42
2023-10-06T06:50:50.899Z,18.60
2023-10-06T06:53:20.115Z,18.75
2023-10-06T06:55:48.671Z,18.92
2023-10-06T06:58:18.173Z,19.05
2023-10-06T07:00:49.419Z,19.17
2023-10-06T07:03:18.155Z,19.21
2023-10-06T07:05:46.546Z,19.22
2023-10-06T07:08:16.783Z,19.20
2023-10-06T07:10:48.502Z,19.26
2023-10-06T07:13:17.255Z,19.47
2023-10-06T07:15:46.284Z,19.62
2023-10-06T07:18:16.079Z,19.70
2023-10-06T07:20:45.600Z,19.93
2023-10-06T07:23:15.341Z,20.09
2023-10-06T07:25:44.425Z,20.30
2023-10-06T07:28:13.641Z,20.35
2023-10-06T07:30:42.203Z,20.50
2023-10-06T07:33:10.910Z,20.58
2023-10-06T07:35:45.139Z,20.55
2023-10-06T07:38:15.258Z,20.66
2023-10-06T07:40:45.280Z,20.69
2023-10-06T07:43:14.627Z,20.83
2023-10-06T07:45:43.099Z,20.81
2023-10-06T07:48:11.828Z,20.93
2023-10-06T07:50:40.024Z,20.92
2023-10-06T07:53:08.757Z,21.17
2023-10-06T07:55:38.315Z,21.48
2023-10-06T07:58:09.623Z,21.59
2023-10-06T08:00:43.410Z,21.68
2023-10-06T08:03:12.336Z,21.78
2023-10-06T08:05:41.881Z,21.86
2023-10-06T08:08:10.838Z,21.91
2023-10-06T08:10:39.423Z,21.91
2023-10-06T08:13:09.328Z,22.10
2023-10-06T08:15:41.938Z,22.19
2023-10-06T08:18:10.347Z,22.17
2023-10-06T08:20:41.498Z,22.17
2023-10-06T08:23:09.963Z,22.21
2023-10-06T08:25:56.882Z,22.27
2023-10-06T08:28:28.392Z,22.45
2023-10-06T08:30:56.728Z,22.54
2023-10-06T08:33:28.922Z,22.47
2023-10-06T08:36:02.568Z,22.47
2023-10-06T08:38:31.889Z,22.55
2023-10-06T08:41:04.528Z,22.55
2023-10-06T08:43:40.162Z,22.49
2023-10-06T08:46:09.878Z,22.69
2023-10-06T08:48:39.918Z,22.81
2023-10-06T08:51:12.407Z,22.98
2023-10-06T08:53:43.338Z,23.04
2023-10-06T08:56:16.720Z,23.10
2023-10-06T08:58:47.266Z,23.14
2023-10-06T09:01:16.288Z,23.22
2023-10-06T09:03:44.761Z,23.13
2023-10-06T09:06:14.425Z,23.28
2023-10-06T09:08:44.021Z,23.49
2023-10-06T09:11:13.273Z,23.53
2023-10-06T09:13:43.451Z,23.44
2023-10-06T09:16:13.654Z,23.42
2023-10-06T09:18:42.703Z,23.56
2023-10-06T09:21:17.377Z,23.58
2023-10-06T09:23:46.260Z,23.75
2023-10-06T09:26:17.312Z,23.80
2023-10-06T09:28:53.445Z,24.00
2023-10-06T09:31:37.137Z,24.01
2023-10-06T09:34:09.448Z,24.13
2023-10-06T09:36:44.126Z,24.21
2023-10-06T09:39:18.971Z,24.55
2023-10-06T09:41:49.384Z,24.54
2023-10-06T09:44:21.076Z,24.66
2023-10-06T09:46:54.762Z,24.80
2023-10-06T09:49:24.320Z,24.79
2023-10-06T09:51:54.179Z,24.86
2023-10-06T09:54:22.997Z,24.80
2023-10-06T09:56:56.784Z,24.71
2023-10-06T09:59:27.773Z,24.69
2023-10-06T10:02:00.381Z,25.03
2023-10-06T10:04:33.037Z,24.90
2023-10-06T10:07:05.410Z,25.16
2023-10-06T10:12:39.118Z,25.26
2023-10-06T10:15:23.256Z,25.44
2023-10-06T10:18:02.534Z,25.49
2023-10-06T10:20:31.266Z,25.49
2023-10-06T10:23:04.424Z,25.43
2023-10-06T10:25:32.783Z,25.66
2023-10-06T10:28:15.419Z,25.59
2023-10-06T10:30:54.995Z,25.57
2023-10-06T10:33:25.757Z,25.69
2023-10-06T10:36:22.139Z,25.63
2023-10-06T10:39:02.659Z,25.66
2023-10-06T10:41:36.854Z,25.73
2023-10-06T10:44:24.879Z,25.73
2023-10-06T10:46:55.626Z,25.81
2023-10-06T10:49:25.593Z,25.82
2023-10-06T10:51:58.689Z,25.96
2023-10-06T10:54:29.751Z,25.91
2023-10-06T10:57:03.655Z,25.53
2023-10-06T11:00:13.488Z,25.40
2023-10-06T11:02:43.717Z,25.50
2023-10-06T11:05:13.672Z,25.54
2023-10-06T11:07:43.562Z,25.72
2023-10-06T11:10:15.308Z,26.03
2023-10-06T11:12:43.673Z,25.91
2023-10-06T11:15:17.737Z,25.94
2023-10-06T11:17:46.998Z,25.89
2023-10-06T11:20:23.340Z,26.08
2023-10-06T11:22:56.859Z,26.24
2023-10-06T11:25:28.899Z,26.08
2023-10-06T11:27:58.215Z,26.21
2023-10-06T11:30:30.445Z,26.39
2023-10-06T11:32:59.352Z,26.34
2023-10-06T11:35:29.292Z,26.44
2023-10-06T11:37:57.916Z,26.43
2023-10-06T11:40:26.902Z,26.48
2023-10-06T11:42:55.795Z,26.57
2023-10-06T11:45:25.590Z,26.53
2023-10-06T11:47:54.855Z,26.70
2023-10-06T11:50:25.990Z,26.72
2023-10-06T11:52:56.669Z,26.74
2023-10-06T11:55:26.316Z,26.69
2023-10-06T11:57:55.564Z,26.74
2023-10-06T12:00:40.072Z,26.78
2023-10-06T12:03:11.686Z,26.69
2023-10-06T12:05:42.905Z,26.72
2023-10-06T12:08:13.826Z,26.76
2023-10-06T12:10:49.987Z,26.78
2023-10-06T12:13:18.658Z,26.92
2023-10-06T12:15:47.472Z,26.99
2023-10-06T12:18:16.571Z,27.04
2023-10-06T12:20:45.068Z,27.05
2023-10-06T12:23:14.793Z,26.92
2023-10-06T12:25:43.004Z,26.87
2023-10-06T12:28:15.265Z,26.75
2023-10-06T12:30:43.731Z,26.67
2023-10-06T12:33:12.875Z,26.57
2023-10-06T12:35:41.312Z,26.54
2023-10-06T12:38:09.962Z,26.75
2023-10-06T12:40:40.404Z,26.76
2023-10-06T12:43:09.408Z,26.62
2023-10-06T12:45:38.092Z,26.63
2023-10-06T12:48:09.407Z,26.57
2023-10-06T12:50:42.398Z,26.64
2023-10-06T12:53:12.699Z,26.44
2023-10-06T12:55:44.423Z,26.44
2023-10-06T12:58:16.333Z,26.36
2023-10-06T13:00:45.642Z,26.21
2023-10-06T13:03:18.169Z,26.18
2023-10-06T13:05:48.040Z,26.16
2023-10-06T13:08:18.700Z,26.13
2023-10-06T13:10:49.112Z,26.19
2023-10-06T13:13:18.578Z,26.16
2023-10-06T13:15:47.932Z,26.16
2023-10-06T13:18:18.781Z,26.00
2023-10-06T13:20:47.954Z,25.98
2023-10-06T13:23:16.726Z,25.95
2023-10-06T13:25:47.334Z,25.98
2023-10-06T13:28:21.901Z,25.99
2023-10-06T13:30:52.998Z,26.02
2023-10-06T13:33:21.889Z,26.07
2023-10-06T13:35:50.375Z,26.07
2023-10-06T13:38:18.904Z,26.01
2023-10-06T13:40:47.741Z,25.95
2023-10-06T13:43:18.904Z,25.90
2023-10-06T13:45:47.317Z,25.84
2023-10-06T13:48:17.543Z,25.82
2023-10-06T13:50:47.210Z,25.68
2023-10-06T13:53:16.571Z,25.55
2023-10-06T13:55:46.151Z,25.48
2023-10-06T13:58:14.898Z,25.44
2023-10-06T14:00:44.589Z,25.39
2023-10-06T14:03:15.253Z,25.29
2023-10-06T14:05:45.522Z,25.26
2023-10-06T14:08:16.059Z,25.18
2023-10-06T14:10:44.320Z,25.10
2023-10-06T14:13:18.063Z,25.03
2023-10-06T14:15:55.924Z,25.00
2023-10-06T14:18:26.633Z,24.90
2023-10-06T14:20:59.030Z,24.84
2023-10-06T14:23:31.529Z,24.82
2023-10-06T14:26:02.397Z,24.79
2023-10-06T14:28:30.909Z,24.94
2023-10-06T14:31:10.414Z,24.80
2023-10-06T14:33:45.745Z,24.74
2023-10-06T14:36:25.948Z,24.66
2023-10-06T14:39:11.590Z,24.58
2023-10-06T14:41:57.413Z,24.55
2023-10-06T14:44:39.596Z,24.45
2023-10-06T14:47:11.595Z,24.33
2023-10-06T14:52:33.692Z,24.27
2023-10-06T14:55:01.939Z,24.28
2023-10-06T14:57:30.127Z,24.29
2023-10-06T14:59:58.998Z,24.27
2023-10-06T15:02:28.705Z,24.12
2023-10-06T15:04:57.165Z,24.15
2023-10-06T15:07:25.366Z,24.10
2023-10-06T15:09:53.636Z,24.10
2023-10-06T15:12:26.683Z,23.94
2023-10-06T15:14:55.442Z,23.92
2023-10-06T15:17:24.148Z,23.88
2023-10-06T15:19:54.299Z,23.84
2023-10-06T15:22:23.662Z,23.78
2023-10-06T15:24:52.061Z,23.67
2023-10-06T15:27:20.424Z,23.64
2023-10-06T15:29:52.312Z,23.52
2023-10-06T15:32:20.744Z,23.62
2023-10-06T15:34:49.064Z,23.73
2023-10-06T15:37:19.096Z,23.57
2023-10-06T15:39:47.680Z,23.47
2023-10-06T15:42:15.875Z,23.38
2023-10-06T15:44:44.118Z,23.32
2023-10-06T15:47:13.501Z,23.43
2023-10-06T15:49:45.070Z,23.32
2023-10-06T15:52:13.327Z,23.23
2023-10-06T15:54:42.860Z,23.11
2023-10-06T15:57:11.143Z,23.06
2023-10-06T15:59:40.286Z,23.09
2023-10-06T16:02:11.176Z,23.11
2023-10-06T16:04:40.586Z,23.02
2023-10-06T16:07:09.879Z,23.00
2023-10-06T16:09:38.014Z,22.96
2023-10-06T16:12:11.261Z,23.06
2023-10-06T16:14:39.723Z,23.10
2023-10-06T16:17:08.038Z,23.10
2023-10-06T16:19:37.833Z,23.03
2023-10-06T16:22:09.070Z,22.99
2023-10-06T16:24:37.617Z,22.89
2023-10-06T16:27:07.227Z,22.81
2023-10-06T16:29:35.723Z,22.74
2023-10-06T16:32:04.193Z,22.66
2023-10-06T16:34:32.607Z,22.74
2023-10-06T16:37:00.942Z,22.67
2023-10-06T16:39:29.211Z,22.69
2023-10-06T16:41:57.474Z,22.70
2023-10-06T16:44:27.113Z,22.79
2023-10-06T16:46:56.526Z,22.68
2023-10-06T16:49:25.354Z,22.60
2023-10-06T16:51:53.789Z,22.62
2023-10-06T16:54:22.765Z,22.50
2023-10-06T16:56:51.094Z,22.59
2023-10-06T16:59:19.858Z,22.50
2023-10-06T17:01:50.743Z,22.37
2023-10-06T17:04:19.698Z,22.32
2023-10-06T17:06:48.085Z,22.23
2023-10-06T17:09:20.219Z,22.14
2023-10-06T17:11:49.892Z,22.23
2023-10-06T17:14:18.481Z,22.17
2023-10-06T17:16:46.838Z,22.06
2023-10-06T17:19:17.577Z,22.00
2023-10-06T17:21:45.861Z,21.92
2023-10-06T17:24:14.497Z,21.85
2023-10-06T17:26:43.967Z,21.77
2023-10-06T17:29:13.178Z,21.73
2023-10-06T17:31:41.815Z,21.70
2023-10-06T17:34:10.099Z,21.64
2023-10-06T17:36:40.629Z,21.58
2023-10-06T17:39:09.111Z,21.54
2023-10-06T17:41:37.617Z,21.50
2023-10-06T17:44:06.813Z,21.44
2023-10-06T17:46:35.103Z,21.44
2023-10-06T17:49:03.558Z,21.23
2023-10-06T17:51:31.866Z,21.08
2023-10-06T17:54:01.420Z,21.12
2023-10-06T17:56:30.065Z,21.14
2023-10-06T17:58:58.871Z,21.15
2023-10-06T18:01:27.612Z,21.09
2023-10-06T18:03:56.051Z,21.11
2023-10-06T18:06:24.431Z,21.05
2023-10-06T18:08:53.242Z,21.01
2023-10-06T18:11:24.755Z,20.99
2023-10-06T18:13:55.514Z,20.96
2023-10-06T18:16:26.390Z,20.98
2023-10-06T18:18:54.889Z,20.92
2023-10-06T18:21:23.415Z,20.89
2023-10-06T18:23:54.946Z,20.87
2023-10-06T18:26:25.339Z,20.88
2023-10-06T18:28:58.028Z,20.84
2023-10-06T18:31:26.996Z,20.82
2023-10-06T18:33:55.358Z,20.78
2023-10-06T18:36:23.656Z,20.77
2023-10-06T18:38:57.349Z,20.77
2023-10-06T18:41:27.666Z,20.74
2023-10-06T18:43:55.992Z,20.74
2023-10-06T18:46:24.957Z,20.72
2023-10-06T18:48:53.650Z,20.72
2023-10-06T18:51:21.953Z,20.70
2023-10-06T18:53:50.132Z,20.64
2023-10-06T18:56:18.308Z,20.59
2023-10-06T18:58:49.745Z,20.57
2023-10-06T19:01:19.698Z,20.51
2023-10-06T19:03:47.901Z,20.49
2023-10-06T19:06:18.795Z,20.50
2023-10-06T19:08:51.396Z,20.58
2023-10-06T19:11:21.012Z,20.61
2023-10-06T19:13:50.983Z,20.54
2023-10-06T19:16:21.287Z,20.49
2023-10-06T19:18:51.738Z,20.41
2023-10-06T19:21:22.167Z,20.37
2023-10-06T19:23:51.598Z,20.34
2023-10-06T19:26:21.093Z,20.32
2023-10-06T19:28:51.068Z,20.31
2023-10-06T19:31:19.888Z,20.28
2023-10-06T19:33:52.079Z,20.27
2023-10-06T19:36:21.686Z,20.26
2023-10-06T19:38:51.985Z,20.24
2023-10-06T19:41:20.545Z,20.23
2023-10-06T19:43:50.302Z,20.20
2023-10-06T19:46:19.460Z,20.20
2023-10-06T19:48:50.132Z,20.18
2023-10-06T19:51:19.467Z,20.16
2023-10-06T19:53:48.128Z,20.17
2023-10-06T19:56:16.459Z,20.16
2023-10-06T19:58:45.870Z,20.15
2023-10-06T20:01:20.737Z,20.14
2023-10-06T20:03:50.450Z,20.13
2023-10-06T20:06:18.739Z,20.14
2023-10-06T20:08:48.034Z,20.15
2023-10-06T20:11:18.632Z,20.14
2023-10-06T20:13:46.940Z,20.13
2023-10-06T20:16:17.721Z,20.09
2023-10-06T20:18:46.627Z,20.09
2023-10-06T20:21:18.535Z,20.02
2023-10-06T20:23:51.301Z,19.98
2023-10-06T20:26:19.512Z,19.92
2023-10-06T20:28:47.813Z,20.04
2023-10-06T20:31:17.658Z,20.16
2023-10-06T20:33:46.762Z,20.11
2023-10-06T20:36:15.899Z,20.03
2023-10-06T20:38:44.222Z,19.91
2023-10-06T20:41:13.402Z,19.87
2023-10-06T20:43:41.709Z,19.70
2023-10-06T20:46:10.202Z,19.60
2023-10-06T20:48:41.008Z,19.50
2023-10-06T20:51:15.836Z,19.40
2023-10-06T20:53:44.358Z,19.33
2023-10-06T20:56:13.033Z,19.27
2023-10-06T20:58:41.918Z,19.19
2023-10-06T21:01:10.997Z,19.19
2023-10-06T21:03:40.710Z,19.09
2023-10-06T21:06:09.108Z,19.04
2023-10-06T21:08:40.577Z,18.94
2023-10-06T21:11:08.829Z,18.87
2023-10-06T21:13:37.797Z,18.82
2023-10-06T21:16:06.531Z,18.78
2023-10-06T21:18:34.781Z,18.72
2023-10-06T21:21:05.754Z,18.71
2023-10-06T21:23:34.112Z,18.64
2023-10-06T21:26:02.443Z,18.61
2023-10-06T21:28:30.611Z,18.59
2023-10-06T21:30:58.879Z,18.56
2023-10-06T21:33:27.156Z,18.58
2023-10-06T21:35:55.360Z,18.62
2023-10-06T21:38:25.066Z,18.59
2023-10-06T21:41:01.538Z,18.49
2023-10-06T21:43:29.843Z,18.40
2023-10-06T21:45:58.167Z,18.35
2023-10-06T21:48:26.539Z,18.28
2023-10-06T21:50:55.942Z,18.25
2023-10-06T21:53:25.625Z,18.25
2023-10-06T21:55:54.160Z,18.26
2023-10-06T21:58:22.499Z,18.35
2023-10-06T22:00:57.156Z,18.29
2023-10-06T22:03:25.837Z,18.31
2023-10-06T22:05:55.647Z,18.31
2023-10-06T22:08:25.677Z,18.34
2023-10-06T22:10:57.343Z,18.34
2023-10-06T22:13:25.875Z,18.37
2023-10-06T22:15:54.124Z,18.39
2023-10-06T22:18:22.911Z,18.40
2023-10-06T22:20:51.197Z,18.40
2023-10-06T22:23:20.526Z,18.38
2023-10-06T22:25:52.415Z,18.46
2023-10-06T22:28:21.556Z,18.50
2023-10-06T22:30:50.333Z,18.48
2023-10-06T22:33:18.966Z,18.54
2023-10-06T22:35:47.109Z,18.47
2023-10-06T22:38:16.075Z,18.43
2023-10-06T22:40:44.349Z,18.42
2023-10-06T22:43:13.897Z,18.42
2023-10-06T22:45:42.107Z,18.44
2023-10-06T22:48:10.671Z,18.48
2023-10-06T22:50:39.260Z,18.45
2023-10-06T22:53:08.556Z,18.40
2023-10-06T22:55:37.652Z,18.37
2023-10-06T22:58:06.968Z,18.35
2023-10-06T23:00:37.709Z,18.33
2023-10-06T23:03:06.621Z,18.33
2023-10-06T23:05:35.265Z,18.41
2023-10-06T23:08:03.437Z,18.36
2023-10-06T23:10:32.138Z,18.27
2023-10-06T23:13:01.733Z,18.29
2023-10-06T23:15:33.169Z,18.24
2023-10-06T23:18:03.021Z,18.23
2023-10-06T23:20:32.335Z,18.23
2023-10-06T23:23:00.912Z,18.24
2023-10-06T23:25:37.960Z,18.25
2023-10-06T23:28:08.301Z,18.21
2023-10-06T23:30:38.216Z,18.23
2023-10-06T23:33:08.493Z,18.25
2023-10-06T23:35:36.719Z,18.23
2023-10-06T23:38:08.191Z,18.25
2023-10-06T23:40:39.743Z,18.24
2023-10-06T23:43:09.916Z,18.30
2023-10-06T23:45:39.217Z,18.34
2023-10-06T23:48:12.707Z,18.37
2023-10-06T23:50:52.641Z,18.35
2023-10-06T23:53:24.278Z,18.34
2023-10-06T23:55:53.966Z,18.27
2023-10-06T23:58:23.632Z,18.25
